sensor_id;sensor_type;location;lat;lon;timestamp;pressure;altitude;pressure_sealevel;temperature;humidity
53679;BME280;40119;52.030;4.708;2022-11-20T00:00:02;101433.29;;;4.82;34.68
53679;BME280;40119;52.030;4.708;2022-11-20T00:02:07;101433.26;;;5.03;34.40
53679;BME280;40119;52.030;4.708;2022-11-20T00:04:11;101437.06;;;2.72;37.69
53679;BME280;40119;52.030;4.708;2022-11-20T00:06:17;101427.13;;;6.02;32.22
53679;BME280;40119;52.030;4.708;2022-11-20T00:08:22;101426.05;;;6.16;32.24
53679;BME280;40119;52.030;4.708;2022-11-20T00:10:26;101432.40;;;6.16;31.79
53679;BME280;40119;52.030;4.708;2022-11-20T00:12:31;101443.40;;;0.20;38.47
53679;BME280;40119;52.030;4.708;2022-11-20T00:14:35;101437.53;;;3.38;36.29
53679;BME280;40119;52.030;4.708;2022-11-20T00:16:40;101437.16;;;3.55;35.39
53679;BME280;40119;52.030;4.708;2022-11-20T00:18:44;101434.23;;;5.97;33.23
53679;BME280;40119;52.030;4.708;2022-11-20T00:20:50;101434.49;;;5.95;31.98
53679;BME280;40119;52.030;4.708;2022-11-20T00:22:55;101436.56;;;5.64;32.19
53679;BME280;40119;52.030;4.708;2022-11-20T00:25:00;101436.29;;;4.63;32.53
53679;BME280;40119;52.030;4.708;2022-11-20T00:27:04;101435.06;;;4.89;33.26
53679;BME280;40119;52.030;4.708;2022-11-20T00:29:10;101438.72;;;3.14;36.17
53679;BME280;40119;52.030;4.708;2022-11-20T00:31:15;101439.85;;;1.39;37.52
53679;BME280;40119;52.030;4.708;2022-11-20T00:33:19;101436.47;;;5.45;32.19
53679;BME280;40119;52.030;4.708;2022-11-20T00:35:23;101438.12;;;4.13;34.48
53679;BME280;40119;52.030;4.708;2022-11-20T00:37:28;101433.85;;;6.12;31.95
53679;BME280;40119;52.030;4.708;2022-11-20T00:39:32;101430.53;;;6.43;31.77
53679;BME280;40119;52.030;4.708;2022-11-20T00:41:36;101429.88;;;5.42;33.63
53679;BME280;40119;52.030;4.708;2022-11-20T00:43:41;101425.94;;;5.63;33.06
53679;BME280;40119;52.030;4.708;2022-11-20T00:45:45;101423.61;;;5.62;33.24
53679;BME280;40119;52.030;4.708;2022-11-20T00:47:50;101420.60;;;6.33;32.47
53679;BME280;40119;52.030;4.708;2022-11-20T00:49:54;101418.12;;;4.71;33.61
53679;BME280;40119;52.030;4.708;2022-11-20T00:51:59;101418.16;;;4.65;34.35
53679;BME280;40119;52.030;4.708;2022-11-20T00:54:05;101419.63;;;4.62;33.95
53679;BME280;40119;52.030;4.708;2022-11-20T00:56:11;101416.60;;;5.55;32.85
53679;BME280;40119;52.030;4.708;2022-11-20T00:58:16;101411.37;;;4.37;34.10
53679;BME280;40119;52.030;4.708;2022-11-20T01:00:20;101407.35;;;3.05;35.48
53679;BME280;40119;52.030;4.708;2022-11-20T01:02:29;101406.19;;;4.96;33.53
53679;BME280;40119;52.030;4.708;2022-11-20T01:04:34;101406.22;;;3.23;35.02
53679;BME280;40119;52.030;4.708;2022-11-20T01:06:39;101400.24;;;5.72;32.91
53679;BME280;40119;52.030;4.708;2022-11-20T01:08:44;101401.10;;;6.21;32.00
53679;BME280;40119;52.030;4.708;2022-11-20T01:10:49;101408.14;;;5.07;34.00
53679;BME280;40119;52.030;4.708;2022-11-20T01:12:53;101409.77;;;4.60;34.79
53679;BME280;40119;52.030;4.708;2022-11-20T01:14:57;101414.19;;;4.65;34.47
53679;BME280;40119;52.030;4.708;2022-11-20T01:17:02;101423.02;;;1.18;38.99
53679;BME280;40119;52.030;4.708;2022-11-20T01:19:09;101415.71;;;4.88;34.63
53679;BME280;40119;52.030;4.708;2022-11-20T01:21:15;101409.44;;;6.08;32.96
53679;BME280;40119;52.030;4.708;2022-11-20T01:23:20;101407.76;;;5.25;33.12
53679;BME280;40119;52.030;4.708;2022-11-20T01:25:24;101406.90;;;6.36;32.95
53679;BME280;40119;52.030;4.708;2022-11-20T01:27:28;101405.17;;;6.47;32.52
53679;BME280;40119;52.030;4.708;2022-11-20T01:29:32;101406.40;;;5.82;33.44
53679;BME280;40119;52.030;4.708;2022-11-20T01:31:37;101403.40;;;6.12;33.20
53679;BME280;40119;52.030;4.708;2022-11-20T01:33:42;101397.03;;;5.43;33.71
53679;BME280;40119;52.030;4.708;2022-11-20T01:35:47;101391.83;;;7.41;31.39
53679;BME280;40119;52.030;4.708;2022-11-20T01:37:51;101394.79;;;6.63;31.81
53679;BME280;40119;52.030;4.708;2022-11-20T01:39:56;101388.62;;;6.28;32.47
53679;BME280;40119;52.030;4.708;2022-11-20T01:42:01;101390.40;;;1.90;36.57
53679;BME280;40119;52.030;4.708;2022-11-20T01:44:05;101383.05;;;5.82;33.43
53679;BME280;40119;52.030;4.708;2022-11-20T01:46:15;101376.11;;;6.83;31.40
53679;BME280;40119;52.030;4.708;2022-11-20T01:48:23;101375.74;;;6.36;31.57
53679;BME280;40119;52.030;4.708;2022-11-20T01:50:29;101383.16;;;5.75;32.36
53679;BME280;40119;52.030;4.708;2022-11-20T01:52:37;101394.70;;;1.78;36.84
53679;BME280;40119;52.030;4.708;2022-11-20T01:54:48;101395.91;;;2.83;36.33
53679;BME280;40119;52.030;4.708;2022-11-20T01:56:57;101395.76;;;5.26;33.78
53679;BME280;40119;52.030;4.708;2022-11-20T01:59:05;101400.26;;;2.71;35.99
53679;BME280;40119;52.030;4.708;2022-11-20T02:01:12;101399.52;;;4.56;34.20
53679;BME280;40119;52.030;4.708;2022-11-20T02:03:19;101397.69;;;5.94;32.54
53679;BME280;40119;52.030;4.708;2022-11-20T02:05:28;101393.47;;;6.62;31.99
53679;BME280;40119;52.030;4.708;2022-11-20T02:07:34;101395.14;;;7.24;31.27
53679;BME280;40119;52.030;4.708;2022-11-20T02:09:39;101398.36;;;6.83;31.31
53679;BME280;40119;52.030;4.708;2022-11-20T02:11:44;101403.37;;;5.09;32.77
53679;BME280;40119;52.030;4.708;2022-11-20T02:13:48;101407.25;;;4.72;33.81
53679;BME280;40119;52.030;4.708;2022-11-20T02:15:53;101407.14;;;6.02;32.86
53679;BME280;40119;52.030;4.708;2022-11-20T02:17:58;101404.27;;;5.86;32.83
53679;BME280;40119;52.030;4.708;2022-11-20T02:20:04;101399.28;;;6.56;32.08
53679;BME280;40119;52.030;4.708;2022-11-20T02:22:11;101402.95;;;3.29;35.85
53679;BME280;40119;52.030;4.708;2022-11-20T02:24:19;101404.15;;;4.91;33.09
53679;BME280;40119;52.030;4.708;2022-11-20T02:26:26;101405.17;;;4.54;34.28
53679;BME280;40119;52.030;4.708;2022-11-20T02:28:32;101404.38;;;3.60;34.95
53679;BME280;40119;52.030;4.708;2022-11-20T02:30:36;101402.41;;;3.38;35.20
53679;BME280;40119;52.030;4.708;2022-11-20T02:32:41;101402.73;;;3.71;35.20
53679;BME280;40119;52.030;4.708;2022-11-20T02:34:45;101400.08;;;4.24;34.39
53679;BME280;40119;52.030;4.708;2022-11-20T02:36:52;101399.47;;;2.85;35.99
53679;BME280;40119;52.030;4.708;2022-11-20T02:39:02;101391.67;;;4.50;34.60
53679;BME280;40119;52.030;4.708;2022-11-20T02:41:07;101381.51;;;6.79;31.06
53679;BME280;40119;52.030;4.708;2022-11-20T02:43:11;101385.25;;;6.53;31.21
53679;BME280;40119;52.030;4.708;2022-11-20T02:45:16;101391.99;;;4.25;33.45
53679;BME280;40119;52.030;4.708;2022-11-20T02:47:20;101391.93;;;2.13;36.10
53679;BME280;40119;52.030;4.708;2022-11-20T02:49:25;101383.94;;;3.06;36.51
53679;BME280;40119;52.030;4.708;2022-11-20T02:51:29;101382.11;;;4.74;34.12
53679;BME280;40119;52.030;4.708;2022-11-20T02:53:34;101379.32;;;4.65;33.59
53679;BME280;40119;52.030;4.708;2022-11-20T02:55:38;101378.32;;;4.79;34.35
53679;BME280;40119;52.030;4.708;2022-11-20T02:57:48;101371.28;;;6.13;32.78
53679;BME280;40119;52.030;4.708;2022-11-20T02:59:52;101366.36;;;6.23;31.54
53679;BME280;40119;52.030;4.708;2022-11-20T03:01:56;101371.96;;;4.42;33.82
53679;BME280;40119;52.030;4.708;2022-11-20T03:04:02;101370.32;;;2.94;36.07
53679;BME280;40119;52.030;4.708;2022-11-20T03:06:07;101364.07;;;6.26;32.02
53679;BME280;40119;52.030;4.708;2022-11-20T03:08:11;101363.98;;;4.28;33.78
53679;BME280;40119;52.030;4.708;2022-11-20T03:10:16;101353.83;;;5.89;31.87
53679;BME280;40119;52.030;4.708;2022-11-20T03:12:21;101348.20;;;6.85;30.51
53679;BME280;40119;52.030;4.708;2022-11-20T03:14:25;101342.43;;;6.96;30.26
53679;BME280;40119;52.030;4.708;2022-11-20T03:16:31;101339.69;;;6.77;30.42
53679;BME280;40119;52.030;4.708;2022-11-20T03:18:36;101341.90;;;7.04;30.40
53679;BME280;40119;52.030;4.708;2022-11-20T03:20:40;101346.64;;;5.38;32.49
53679;BME280;40119;52.030;4.708;2022-11-20T03:22:45;101342.59;;;6.01;32.20
53679;BME280;40119;52.030;4.708;2022-11-20T03:24:49;101339.00;;;5.85;31.87
53679;BME280;40119;52.030;4.708;2022-11-20T03:26:54;101335.77;;;5.84;32.68
53679;BME280;40119;52.030;4.708;2022-11-20T03:29:05;101327.97;;;6.12;32.22
53679;BME280;40119;52.030;4.708;2022-11-20T03:31:11;101318.38;;;6.88;30.61
53679;BME280;40119;52.030;4.708;2022-11-20T03:33:16;101318.73;;;4.79;33.12
53679;BME280;40119;52.030;4.708;2022-11-20T03:35:20;101318.09;;;5.93;31.39
53679;BME280;40119;52.030;4.708;2022-11-20T03:37:25;101323.46;;;4.41;32.61
53679;BME280;40119;52.030;4.708;2022-11-20T03:39:35;101321.22;;;4.65;33.74
53679;BME280;40119;52.030;4.708;2022-11-20T03:41:41;101318.95;;;3.74;33.80
53679;BME280;40119;52.030;4.708;2022-11-20T03:43:48;101322.85;;;3.20;35.19
53679;BME280;40119;52.030;4.708;2022-11-20T03:45:53;101321.44;;;2.97;35.60
53679;BME280;40119;52.030;4.708;2022-11-20T03:47:57;101317.60;;;5.39;32.93
53679;BME280;40119;52.030;4.708;2022-11-20T03:50:02;101318.74;;;1.37;37.38
53679;BME280;40119;52.030;4.708;2022-11-20T03:52:06;101308.78;;;3.59;35.61
53679;BME280;40119;52.030;4.708;2022-11-20T03:54:16;101301.00;;;2.59;35.42
53679;BME280;40119;52.030;4.708;2022-11-20T03:56:24;101293.39;;;6.34;32.04
53679;BME280;40119;52.030;4.708;2022-11-20T03:58:29;101296.81;;;5.54;32.92
53679;BME280;40119;52.030;4.708;2022-11-20T04:00:33;101295.90;;;5.03;32.94
53679;BME280;40119;52.030;4.708;2022-11-20T04:02:38;101304.97;;;4.34;34.19
53679;BME280;40119;52.030;4.708;2022-11-20T04:04:42;101307.73;;;5.52;32.56
53679;BME280;40119;52.030;4.708;2022-11-20T04:06:46;101313.66;;;5.10;33.33
53679;BME280;40119;52.030;4.708;2022-11-20T04:08:53;101313.59;;;3.02;35.55
53679;BME280;40119;52.030;4.708;2022-11-20T04:11:08;101313.85;;;0.75;37.93
53679;BME280;40119;52.030;4.708;2022-11-20T04:13:13;101300.84;;;6.02;31.97
53679;BME280;40119;52.030;4.708;2022-11-20T04:15:17;101304.90;;;2.58;35.34
53679;BME280;40119;52.030;4.708;2022-11-20T04:17:22;101292.30;;;6.23;31.70
53679;BME280;40119;52.030;4.708;2022-11-20T04:19:26;101293.88;;;3.55;34.90
53679;BME280;40119;52.030;4.708;2022-11-20T04:21:31;101283.02;;;6.40;32.07
53679;BME280;40119;52.030;4.708;2022-11-20T04:23:35;101278.04;;;5.11;31.93
53679;BME280;40119;52.030;4.708;2022-11-20T04:25:39;101275.34;;;5.04;33.43
53679;BME280;40119;52.030;4.708;2022-11-20T04:27:45;101271.88;;;5.43;31.99
53679;BME280;40119;52.030;4.708;2022-11-20T04:29:49;101264.06;;;6.81;31.03
53679;BME280;40119;52.030;4.708;2022-11-20T04:31:53;101264.19;;;5.46;32.22
53679;BME280;40119;52.030;4.708;2022-11-20T04:34:00;101266.08;;;6.47;31.24
53679;BME280;40119;52.030;4.708;2022-11-20T04:36:07;101277.50;;;4.24;33.55
53679;BME280;40119;52.030;4.708;2022-11-20T04:38:12;101279.50;;;5.28;33.19
53679;BME280;40119;52.030;4.708;2022-11-20T04:40:16;101279.37;;;5.12;33.25
53679;BME280;40119;52.030;4.708;2022-11-20T04:42:21;101269.53;;;6.12;31.78
53679;BME280;40119;52.030;4.708;2022-11-20T04:44:25;101262.44;;;7.64;30.28
53679;BME280;40119;52.030;4.708;2022-11-20T04:46:32;101258.20;;;7.25;30.28
53679;BME280;40119;52.030;4.708;2022-11-20T04:48:36;101260.01;;;5.96;31.02
53679;BME280;40119;52.030;4.708;2022-11-20T04:50:41;101268.16;;;4.50;33.21
53679;BME280;40119;52.030;4.708;2022-11-20T04:52:45;101263.56;;;5.91;31.74
53679;BME280;40119;52.030;4.708;2022-11-20T04:54:49;101268.89;;;3.50;34.11
53679;BME280;40119;52.030;4.708;2022-11-20T04:56:54;101265.70;;;4.90;33.72
53679;BME280;40119;52.030;4.708;2022-11-20T04:59:01;101260.46;;;5.78;32.57
53679;BME280;40119;52.030;4.708;2022-11-20T05:01:08;101262.88;;;6.16;31.52
53679;BME280;40119;52.030;4.708;2022-11-20T05:03:14;101272.04;;;3.32;35.10
53679;BME280;40119;52.030;4.708;2022-11-20T05:05:18;101269.29;;;5.01;33.76
53679;BME280;40119;52.030;4.708;2022-11-20T05:07:22;101273.01;;;5.28;32.59
53679;BME280;40119;52.030;4.708;2022-11-20T05:09:27;101274.46;;;4.10;34.37
53679;BME280;40119;52.030;4.708;2022-11-20T05:11:31;101273.52;;;3.01;35.91
53679;BME280;40119;52.030;4.708;2022-11-20T05:13:37;101271.40;;;3.58;34.91
53679;BME280;40119;52.030;4.708;2022-11-20T05:15:41;101265.67;;;3.86;34.78
53679;BME280;40119;52.030;4.708;2022-11-20T05:17:51;101265.86;;;2.59;36.90
53679;BME280;40119;52.030;4.708;2022-11-20T05:19:56;101266.54;;;5.07;32.93
53679;BME280;40119;52.030;4.708;2022-11-20T05:22:01;101273.40;;;0.93;38.87
53679;BME280;40119;52.030;4.708;2022-11-20T05:24:06;101270.42;;;3.74;35.27
53679;BME280;40119;52.030;4.708;2022-11-20T05:26:16;101274.52;;;2.66;36.16
53679;BME280;40119;52.030;4.708;2022-11-20T05:28:22;101276.05;;;3.11;35.91
53679;BME280;40119;52.030;4.708;2022-11-20T05:30:26;101277.40;;;3.74;35.19
53679;BME280;40119;52.030;4.708;2022-11-20T05:32:31;101273.37;;;5.00;34.06
53679;BME280;40119;52.030;4.708;2022-11-20T05:34:36;101277.72;;;4.08;34.49
53679;BME280;40119;52.030;4.708;2022-11-20T05:36:40;101289.09;;;1.20;38.40
53679;BME280;40119;52.030;4.708;2022-11-20T05:38:44;101289.39;;;0.24;39.87
53679;BME280;40119;52.030;4.708;2022-11-20T05:40:48;101281.27;;;1.31;39.56
53679;BME280;40119;52.030;4.708;2022-11-20T05:42:53;101268.71;;;4.30;35.50
53679;BME280;40119;52.030;4.708;2022-11-20T05:44:58;101271.02;;;3.48;36.26
53679;BME280;40119;52.030;4.708;2022-11-20T05:47:02;101268.95;;;4.57;35.07
53679;BME280;40119;52.030;4.708;2022-11-20T05:49:07;101268.47;;;5.00;34.67
53679;BME280;40119;52.030;4.708;2022-11-20T05:51:14;101273.39;;;4.37;34.48
53679;BME280;40119;52.030;4.708;2022-11-20T05:53:19;101266.57;;;5.39;32.93
53679;BME280;40119;52.030;4.708;2022-11-20T05:55:23;101264.88;;;4.76;34.03
53679;BME280;40119;52.030;4.708;2022-11-20T05:57:27;101253.05;;;5.99;33.01
53679;BME280;40119;52.030;4.708;2022-11-20T05:59:31;101256.88;;;6.08;32.50
53679;BME280;40119;52.030;4.708;2022-11-20T06:01:37;101258.83;;;3.35;36.31
53679;BME280;40119;52.030;4.708;2022-11-20T06:03:42;101250.01;;;6.85;31.74
53679;BME280;40119;52.030;4.708;2022-11-20T06:05:47;101257.02;;;3.74;35.08
53679;BME280;40119;52.030;4.708;2022-11-20T06:07:51;101261.10;;;1.24;38.58
53679;BME280;40119;52.030;4.708;2022-11-20T06:09:55;101254.90;;;4.73;34.78
53679;BME280;40119;52.030;4.708;2022-11-20T06:12:02;101250.07;;;4.31;35.61
53679;BME280;40119;52.030;4.708;2022-11-20T06:14:06;101243.33;;;4.06;34.76
53679;BME280;40119;52.030;4.708;2022-11-20T06:16:12;101235.32;;;5.65;33.08
53679;BME280;40119;52.030;4.708;2022-11-20T06:18:17;101230.21;;;6.91;31.66
53679;BME280;40119;52.030;4.708;2022-11-20T06:20:22;101234.93;;;1.85;36.98
53679;BME280;40119;52.030;4.708;2022-11-20T06:22:27;101230.12;;;4.39;34.29
53679;BME280;40119;52.030;4.708;2022-11-20T06:24:31;101224.55;;;5.79;33.22
53679;BME280;40119;52.030;4.708;2022-11-20T06:26:36;101232.88;;;3.18;36.83
53679;BME280;40119;52.030;4.708;2022-11-20T06:28:40;101232.41;;;1.66;39.70
53679;BME280;40119;52.030;4.708;2022-11-20T06:30:45;101226.41;;;4.42;35.44
53679;BME280;40119;52.030;4.708;2022-11-20T06:32:49;101224.74;;;4.76;34.37
53679;BME280;40119;52.030;4.708;2022-11-20T06:34:54;101219.40;;;3.96;35.93
53679;BME280;40119;52.030;4.708;2022-11-20T06:36:58;101221.64;;;-0.10;42.74
53679;BME280;40119;52.030;4.708;2022-11-20T06:39:03;101218.64;;;3.01;37.87
53679;BME280;40119;52.030;4.708;2022-11-20T06:41:11;101217.63;;;3.98;35.65
53679;BME280;40119;52.030;4.708;2022-11-20T06:43:16;101213.55;;;5.25;34.34
53679;BME280;40119;52.030;4.708;2022-11-20T06:45:20;101219.61;;;3.25;37.02
53679;BME280;40119;52.030;4.708;2022-11-20T06:47:26;101218.65;;;3.62;36.31
53679;BME280;40119;52.030;4.708;2022-11-20T06:49:30;101219.97;;;2.78;37.39
53679;BME280;40119;52.030;4.708;2022-11-20T06:51:34;101220.93;;;3.32;37.35
53679;BME280;40119;52.030;4.708;2022-11-20T06:53:39;101221.74;;;3.56;36.89
53679;BME280;40119;52.030;4.708;2022-11-20T06:55:44;101217.55;;;2.02;39.30
53679;BME280;40119;52.030;4.708;2022-11-20T06:57:50;101206.75;;;5.72;34.28
53679;BME280;40119;52.030;4.708;2022-11-20T06:59:54;101200.66;;;5.95;33.57
53679;BME280;40119;52.030;4.708;2022-11-20T07:02:00;101203.87;;;3.23;37.87
53679;BME280;40119;52.030;4.708;2022-11-20T07:04:04;101196.23;;;5.86;33.17
53679;BME280;40119;52.030;4.708;2022-11-20T07:06:09;101197.31;;;5.37;34.03
53679;BME280;40119;52.030;4.708;2022-11-20T07:08:13;101197.84;;;5.49;34.68
53679;BME280;40119;52.030;4.708;2022-11-20T07:10:18;101198.53;;;4.43;35.47
53679;BME280;40119;52.030;4.708;2022-11-20T07:12:22;101198.21;;;6.54;33.05
53679;BME280;40119;52.030;4.708;2022-11-20T07:14:27;101212.93;;;1.31;39.44
53679;BME280;40119;52.030;4.708;2022-11-20T07:16:31;101207.11;;;5.31;35.05
53679;BME280;40119;52.030;4.708;2022-11-20T07:18:36;101205.15;;;6.50;32.91
53679;BME280;40119;52.030;4.708;2022-11-20T07:20:40;101203.19;;;7.35;31.76
53679;BME280;40119;52.030;4.708;2022-11-20T07:22:44;101212.15;;;2.92;38.37
53679;BME280;40119;52.030;4.708;2022-11-20T07:24:49;101209.24;;;5.44;34.90
53679;BME280;40119;52.030;4.708;2022-11-20T07:26:53;101212.21;;;2.80;37.49
53679;BME280;40119;52.030;4.708;2022-11-20T07:28:58;101210.98;;;2.96;38.07
53679;BME280;40119;52.030;4.708;2022-11-20T07:31:03;101212.14;;;1.88;39.34
53679;BME280;40119;52.030;4.708;2022-11-20T07:33:07;101217.00;;;3.62;38.18
53679;BME280;40119;52.030;4.708;2022-11-20T07:35:17;101222.44;;;0.54;40.84
53679;BME280;40119;52.030;4.708;2022-11-20T07:37:27;101214.28;;;4.96;35.82
53679;BME280;40119;52.030;4.708;2022-11-20T07:39:33;101216.70;;;3.13;38.07
53679;BME280;40119;52.030;4.708;2022-11-20T07:41:38;101216.25;;;2.14;39.20
53679;BME280;40119;52.030;4.708;2022-11-20T07:43:47;101213.75;;;3.43;38.30
53679;BME280;40119;52.030;4.708;2022-11-20T07:45:57;101217.65;;;3.86;37.46
53679;BME280;40119;52.030;4.708;2022-11-20T07:48:03;101216.75;;;2.59;39.21
53679;BME280;40119;52.030;4.708;2022-11-20T07:50:14;101221.24;;;-0.49;44.15
53679;BME280;40119;52.030;4.708;2022-11-20T07:52:19;101218.26;;;1.24;40.65
53679;BME280;40119;52.030;4.708;2022-11-20T07:54:23;101215.48;;;3.76;38.24
53679;BME280;40119;52.030;4.708;2022-11-20T07:56:28;101218.64;;;0.36;43.07
53679;BME280;40119;52.030;4.708;2022-11-20T07:58:32;101218.58;;;0.59;44.54
53679;BME280;40119;52.030;4.708;2022-11-20T08:00:38;101228.37;;;-2.71;49.12
53679;BME280;40119;52.030;4.708;2022-11-20T08:02:51;101219.09;;;2.64;40.46
53679;BME280;40119;52.030;4.708;2022-11-20T08:04:56;101216.53;;;3.54;39.25
53679;BME280;40119;52.030;4.708;2022-11-20T08:07:02;101210.59;;;2.17;40.93
53679;BME280;40119;52.030;4.708;2022-11-20T08:09:06;101213.66;;;0.41;42.26
53679;BME280;40119;52.030;4.708;2022-11-20T08:11:11;101219.93;;;0.97;42.48
53679;BME280;40119;52.030;4.708;2022-11-20T08:13:16;101222.15;;;1.98;42.55
53679;BME280;40119;52.030;4.708;2022-11-20T08:15:23;101222.03;;;4.39;38.29
53679;BME280;40119;52.030;4.708;2022-11-20T08:17:28;101231.74;;;-2.33;47.76
53679;BME280;40119;52.030;4.708;2022-11-20T08:19:33;101225.42;;;3.47;40.03
53679;BME280;40119;52.030;4.708;2022-11-20T08:21:37;101231.49;;;-0.33;44.93
53679;BME280;40119;52.030;4.708;2022-11-20T08:23:42;101220.43;;;1.53;41.84
53679;BME280;40119;52.030;4.708;2022-11-20T08:25:49;101218.80;;;0.43;43.72
53679;BME280;40119;52.030;4.708;2022-11-20T08:27:54;101214.49;;;3.91;39.17
53679;BME280;40119;52.030;4.708;2022-11-20T08:30:01;101222.99;;;1.25;42.37
53679;BME280;40119;52.030;4.708;2022-11-20T08:32:06;101216.22;;;3.07;40.01
53679;BME280;40119;52.030;4.708;2022-11-20T08:34:11;101210.99;;;2.46;41.43
53679;BME280;40119;52.030;4.708;2022-11-20T08:36:16;101210.09;;;1.76;42.67
53679;BME280;40119;52.030;4.708;2022-11-20T08:38:20;101211.62;;;-2.08;47.62
53679;BME280;40119;52.030;4.708;2022-11-20T08:40:25;101198.17;;;1.63;44.76
53679;BME280;40119;52.030;4.708;2022-11-20T08:42:29;101201.16;;;2.50;41.79
53679;BME280;40119;52.030;4.708;2022-11-20T08:44:33;101208.62;;;-1.37;46.76
53679;BME280;40119;52.030;4.708;2022-11-20T08:46:39;101194.97;;;1.14;44.60
53679;BME280;40119;52.030;4.708;2022-11-20T08:48:44;101191.12;;;2.21;41.84
53679;BME280;40119;52.030;4.708;2022-11-20T08:50:49;101193.77;;;1.08;44.11
53679;BME280;40119;52.030;4.708;2022-11-20T08:53:02;101196.10;;;0.16;44.73
53679;BME280;40119;52.030;4.708;2022-11-20T08:55:08;101200.94;;;-1.46;47.76
53679;BME280;40119;52.030;4.708;2022-11-20T08:57:12;101198.87;;;-0.32;48.47
53679;BME280;40119;52.030;4.708;2022-11-20T08:59:17;101199.28;;;-2.31;50.64
53679;BME280;40119;52.030;4.708;2022-11-20T09:01:22;101187.56;;;1.57;44.41
53679;BME280;40119;52.030;4.708;2022-11-20T09:03:27;101198.69;;;-0.38;47.47
53679;BME280;40119;52.030;4.708;2022-11-20T09:05:31;101196.39;;;-1.24;48.65
53679;BME280;40119;52.030;4.708;2022-11-20T09:07:36;101188.69;;;0.07;46.92
53679;BME280;40119;52.030;4.708;2022-11-20T09:09:40;101200.82;;;-0.41;47.42
53679;BME280;40119;52.030;4.708;2022-11-20T09:11:44;101194.67;;;0.57;45.88
53679;BME280;40119;52.030;4.708;2022-11-20T09:13:49;101189.81;;;-0.98;49.37
53679;BME280;40119;52.030;4.708;2022-11-20T09:15:54;101193.21;;;-1.68;50.01
53679;BME280;40119;52.030;4.708;2022-11-20T09:18:02;101196.93;;;-4.18;56.20
53679;BME280;40119;52.030;4.708;2022-11-20T09:20:08;101183.28;;;-0.92;52.03
53679;BME280;40119;52.030;4.708;2022-11-20T09:22:12;101181.45;;;-1.88;51.53
53679;BME280;40119;52.030;4.708;2022-11-20T09:24:16;101164.38;;;1.08;47.23
53679;BME280;40119;52.030;4.708;2022-11-20T09:26:21;101162.46;;;1.08;46.12
53679;BME280;40119;52.030;4.708;2022-11-20T09:28:25;101170.30;;;-1.19;50.39
53679;BME280;40119;52.030;4.708;2022-11-20T09:30:29;101165.76;;;-0.61;50.66
53679;BME280;40119;52.030;4.708;2022-11-20T09:32:34;101153.13;;;2.13;46.36
53679;BME280;40119;52.030;4.708;2022-11-20T09:34:38;101151.78;;;0.83;47.57
53679;BME280;40119;52.030;4.708;2022-11-20T09:36:43;101152.74;;;-0.09;48.98
53679;BME280;40119;52.030;4.708;2022-11-20T09:38:48;101159.66;;;-1.17;53.22
53679;BME280;40119;52.030;4.708;2022-11-20T09:40:56;101150.04;;;-2.03;55.56
53679;BME280;40119;52.030;4.708;2022-11-20T09:43:07;101131.46;;;1.95;48.90
53679;BME280;40119;52.030;4.708;2022-11-20T09:45:21;101127.94;;;2.99;43.83
53679;BME280;40119;52.030;4.708;2022-11-20T09:47:36;101128.67;;;2.87;44.45
53679;BME280;40119;52.030;4.708;2022-11-20T09:49:58;101137.74;;;0.01;49.63
53679;BME280;40119;52.030;4.708;2022-11-20T09:52:14;101130.33;;;3.77;44.52
53679;BME280;40119;52.030;4.708;2022-11-20T09:54:26;101111.77;;;7.00;37.83
53679;BME280;40119;52.030;4.708;2022-11-20T09:56:35;101111.07;;;4.31;42.12
53679;BME280;40119;52.030;4.708;2022-11-20T09:58:43;101113.94;;;3.51;43.08
53679;BME280;40119;52.030;4.708;2022-11-20T10:00:49;101116.71;;;3.33;42.87
53679;BME280;40119;52.030;4.708;2022-11-20T10:02:59;101119.95;;;2.57;44.12
53679;BME280;40119;52.030;4.708;2022-11-20T10:05:10;101117.17;;;1.75;44.75
53679;BME280;40119;52.030;4.708;2022-11-20T10:07:20;101111.29;;;1.54;46.65
53679;BME280;40119;52.030;4.708;2022-11-20T10:09:30;101100.58;;;4.13;42.76
53679;BME280;40119;52.030;4.708;2022-11-20T10:11:46;101094.30;;;5.22;41.41
53679;BME280;40119;52.030;4.708;2022-11-20T10:13:59;101088.56;;;4.17;41.84
53679;BME280;40119;52.030;4.708;2022-11-20T10:16:20;101081.20;;;5.03;41.09
53679;BME280;40119;52.030;4.708;2022-11-20T10:18:40;101073.69;;;4.19;43.43
53679;BME280;40119;52.030;4.708;2022-11-20T10:20:50;101067.90;;;2.19;44.96
53679;BME280;40119;52.030;4.708;2022-11-20T10:23:29;101057.71;;;5.32;40.66
53679;BME280;40119;52.030;4.708;2022-11-20T10:25:38;101061.29;;;1.26;46.97
53679;BME280;40119;52.030;4.708;2022-11-20T10:28:17;101050.82;;;3.48;44.12
53679;BME280;40119;52.030;4.708;2022-11-20T10:30:25;101050.09;;;3.15;45.52
53679;BME280;40119;52.030;4.708;2022-11-20T10:32:35;101049.14;;;1.90;46.51
53679;BME280;40119;52.030;4.708;2022-11-20T10:34:46;101045.81;;;0.61;48.91
53679;BME280;40119;52.030;4.708;2022-11-20T10:36:55;101043.44;;;1.30;48.42
53679;BME280;40119;52.030;4.708;2022-11-20T10:39:10;101039.96;;;1.43;52.68
53679;BME280;40119;52.030;4.708;2022-11-20T10:41:23;101032.35;;;0.40;50.75
53679;BME280;40119;52.030;4.708;2022-11-20T10:43:32;101012.91;;;4.36;45.15
53679;BME280;40119;52.030;4.708;2022-11-20T10:45:46;101011.67;;;0.16;51.88
53679;BME280;40119;52.030;4.708;2022-11-20T10:47:54;101001.92;;;5.27;43.04
53679;BME280;40119;52.030;4.708;2022-11-20T10:50:11;101006.19;;;2.03;50.76
53679;BME280;40119;52.030;4.708;2022-11-20T10:52:21;101001.44;;;1.91;47.87
53679;BME280;40119;52.030;4.708;2022-11-20T10:54:36;101002.93;;;0.31;53.06
53679;BME280;40119;52.030;4.708;2022-11-20T10:56:46;101001.15;;;2.43;49.38
53679;BME280;40119;52.030;4.708;2022-11-20T10:59:03;100990.55;;;4.68;44.20
53679;BME280;40119;52.030;4.708;2022-11-20T11:01:15;100978.03;;;5.77;42.54
53679;BME280;40119;52.030;4.708;2022-11-20T11:03:25;100985.62;;;1.35;50.38
53679;BME280;40119;52.030;4.708;2022-11-20T11:05:36;100983.20;;;0.74;53.59
53679;BME280;40119;52.030;4.708;2022-11-20T11:07:42;100983.93;;;-0.19;53.03